createdAt,value
2017-05-16T00:01:38.211Z,84.20
2017-05-16T00:04:06.423Z,83.60
2017-05-16T00:06:35.380Z,82.90
2017-05-16T00:09:03.596Z,82.50
2017-05-16T00:11:31.811Z,82.50
2017-05-16T00:14:00.018Z,82.60
2017-05-16T00:16:28.982Z,83.70
2017-05-16T00:18:57.195Z,82.80
2017-05-16T00:21:26.144Z,83.00
2017-05-16T00:23:54.359Z,83.00
2017-05-16T00:26:23.307Z,83.30
2017-05-16T00:28:51.514Z,83.60
2017-05-16T00:31:19.727Z,83.30
2017-05-16T00:33:47.950Z,83.50
2017-05-16T00:36:16.155Z,83.40
2017-05-16T00:38:44.399Z,83.30
2017-05-16T00:41:12.604Z,84.10
2017-05-16T00:43:40.824Z,85.10
2017-05-16T00:46:09.040Z,85.40
2017-05-16T00:48:37.987Z,86.60
2017-05-16T00:51:06.204Z,85.30
2017-05-16T00:53:35.156Z,85.20
2017-05-16T00:56:03.368Z,86.90
2017-05-16T00:58:32.321Z,87.50
2017-05-16T01:01:00.536Z,86.20
2017-05-16T01:03:28.744Z,86.00
2017-05-16T01:05:56.964Z,86.50
2017-05-16T01:08:25.171Z,86.60
2017-05-16T01:10:53.388Z,86.60
2017-05-16T01:13:21.600Z,86.40
2017-05-16T01:15:50.550Z,87.70
2017-05-16T01:18:18.763Z,88.00
2017-05-16T01:20:46.967Z,88.20
2017-05-16T01:23:15.188Z,87.90
2017-05-16T01:25:43.395Z,87.90
2017-05-16T01:28:12.352Z,88.40
2017-05-16T01:30:40.559Z,88.30
2017-05-16T01:33:09.515Z,87.40
2017-05-16T01:35:37.720Z,86.80
2017-05-16T01:38:06.672Z,86.90
2017-05-16T01:40:34.867Z,87.30
2017-05-16T01:43:03.835Z,87.50
2017-05-16T01:45:32.043Z,87.00
2017-05-16T01:48:00.275Z,87.60
2017-05-16T01:50:28.467Z,86.80
2017-05-16T01:52:56.667Z,86.70
2017-05-16T01:55:25.624Z,87.60
2017-05-16T01:57:53.836Z,87.40
2017-05-16T02:00:22.036Z,87.20
2017-05-16T02:05:44.348Z,87.00
2017-05-16T02:08:12.555Z,87.80
2017-05-16T02:10:40.767Z,88.10
2017-05-16T02:13:08.971Z,87.90
2017-05-16T02:15:37.179Z,87.60
2017-05-16T02:18:05.388Z,87.40
2017-05-16T02:20:33.628Z,87.60
2017-05-16T02:23:01.827Z,89.00
2017-05-16T02:25:30.036Z,89.40
2017-05-16T02:27:58.263Z,89.40
2017-05-16T02:30:26.471Z,89.20
2017-05-16T02:32:55.428Z,89.40
2017-05-16T02:35:23.636Z,89.30
2017-05-16T02:37:51.859Z,89.70
2017-05-16T02:40:20.067Z,89.60
2017-05-16T02:42:48.274Z,89.60
2017-05-16T02:45:16.501Z,90.00
2017-05-16T02:47:44.711Z,90.00
2017-05-16T02:50:13.651Z,89.80
2017-05-16T02:52:41.870Z,90.00
2017-05-16T02:55:10.811Z,89.90
2017-05-16T02:57:39.028Z,90.10
2017-05-16T03:00:07.983Z,90.20
2017-05-16T03:02:36.191Z,90.30
2017-05-16T03:05:05.143Z,90.20
2017-05-16T03:07:33.370Z,90.20
2017-05-16T03:10:01.595Z,90.10
2017-05-16T03:12:29.803Z,90.10
2017-05-16T03:14:58.762Z,90.40
2017-05-16T03:17:26.967Z,90.30
2017-05-16T03:19:55.943Z,90.20
2017-05-16T03:22:24.916Z,90.30
2017-05-16T03:24:53.123Z,90.40
2017-05-16T03:27:22.079Z,90.30
2017-05-16T03:29:50.293Z,90.30
2017-05-16T03:32:19.247Z,90.30
2017-05-16T03:34:47.450Z,90.40
2017-05-16T03:37:16.407Z,90.50
2017-05-16T03:39:44.624Z,90.40
2017-05-16T03:42:13.575Z,90.50
2017-05-16T03:44:41.782Z,90.50
2017-05-16T03:47:10.744Z,90.40
2017-05-16T03:49:38.947Z,90.50
2017-05-16T03:52:07.907Z,90.50
2017-05-16T03:54:36.115Z,90.50
2017-05-16T03:57:05.076Z,90.90
2017-05-16T03:59:33.284Z,90.30
2017-05-16T04:02:02.236Z,90.30
2017-05-16T04:04:30.447Z,90.30
2017-05-16T04:06:59.400Z,90.60
2017-05-16T04:09:27.611Z,90.20
2017-05-16T04:11:56.564Z,90.30
2017-05-16T04:14:24.775Z,90.30
2017-05-16T04:16:53.732Z,90.40
2017-05-16T04:19:21.948Z,90.30
2017-05-16T04:21:50.895Z,90.20
2017-05-16T04:24:19.109Z,90.10
2017-05-16T04:26:48.067Z,90.00
2017-05-16T04:29:16.282Z,89.70
2017-05-16T04:31:45.243Z,89.60
2017-05-16T04:34:13.447Z,90.00
2017-05-16T04:36:42.402Z,89.80
2017-05-16T04:39:10.612Z,90.00
2017-05-16T04:41:39.620Z,90.00
2017-05-16T04:44:07.848Z,90.00
2017-05-16T04:46:36.056Z,89.70
2017-05-16T04:49:05.004Z,89.50
2017-05-16T04:51:33.272Z,89.20
2017-05-16T04:54:01.449Z,89.40
2017-05-16T04:56:29.665Z,89.40
2017-05-16T04:58:58.615Z,89.00
2017-05-16T05:01:26.827Z,89.10
2017-05-16T05:03:55.779Z,87.60
2017-05-16T05:06:23.988Z,87.70
2017-05-16T05:08:52.946Z,87.60
2017-05-16T05:11:21.156Z,86.50
2017-05-16T05:13:50.123Z,86.40
2017-05-16T05:16:18.331Z,85.70
2017-05-16T05:18:47.324Z,83.70
2017-05-16T05:21:16.277Z,82.30
2017-05-16T05:23:44.491Z,79.20
2017-05-16T05:26:13.436Z,78.40
2017-05-16T05:28:41.648Z,77.10
2017-05-16T05:31:09.856Z,75.80
2017-05-16T05:33:38.128Z,72.70
2017-05-16T05:36:06.299Z,74.10
2017-05-16T05:38:34.519Z,72.30
2017-05-16T05:41:02.731Z,72.20
2017-05-16T05:43:30.953Z,68.00
2017-05-16T05:45:59.173Z,64.60
2017-05-16T05:48:28.144Z,65.00
2017-05-16T05:50:56.359Z,62.80
2017-05-16T05:53:24.588Z,56.20
2017-05-16T05:55:52.799Z,53.30
2017-05-16T05:58:21.017Z,56.70
2017-05-16T06:00:49.240Z,52.70
2017-05-16T06:03:18.191Z,51.40
2017-05-16T06:05:46.408Z,58.80
2017-05-16T06:08:15.427Z,59.00
2017-05-16T06:10:43.671Z,57.50
2017-05-16T06:13:12.619Z,53.00
2017-05-16T06:15:40.843Z,51.40
2017-05-16T06:18:09.076Z,46.30
2017-05-16T06:20:37.364Z,46.50
2017-05-16T06:23:05.574Z,54.10
2017-05-16T06:25:33.788Z,56.50
2017-05-16T06:28:02.161Z,48.10
2017-05-16T06:30:30.364Z,48.00
2017-05-16T06:32:58.579Z,46.20
2017-05-16T06:35:26.788Z,41.80
2017-05-16T06:37:54.996Z,42.00
2017-05-16T06:40:24.037Z,41.30
2017-05-16T06:42:52.268Z,45.80
2017-05-16T06:45:21.224Z,46.70
2017-05-16T06:47:49.449Z,44.30
2017-05-16T06:50:17.668Z,43.90
2017-05-16T06:52:45.888Z,40.00
2017-05-16T06:55:14.836Z,36.40
2017-05-16T06:57:43.071Z,36.60
2017-05-16T07:00:11.292Z,37.10
2017-05-16T07:02:39.492Z,35.50
2017-05-16T07:05:08.447Z,35.60
2017-05-16T07:07:36.655Z,32.50
2017-05-16T07:10:05.613Z,31.20
2017-05-16T07:12:33.818Z,41.10
2017-05-16T07:15:02.039Z,37.40
2017-05-16T07:17:30.249Z,38.80
2017-05-16T07:19:59.200Z,35.40
2017-05-16T07:22:27.412Z,39.00
2017-05-16T07:24:56.389Z,39.60
2017-05-16T07:27:24.595Z,41.30
2017-05-16T07:29:52.815Z,40.70
2017-05-16T07:32:21.037Z,37.00
2017-05-16T07:34:49.987Z,36.00
2017-05-16T07:37:18.213Z,38.70
2017-05-16T07:39:46.430Z,36.00
2017-05-16T07:42:14.647Z,32.20
2017-05-16T07:44:43.596Z,29.10
2017-05-16T07:47:11.815Z,27.60
2017-05-16T07:49:40.790Z,30.60
2017-05-16T07:52:09.766Z,29.50
2017-05-16T07:54:37.976Z,30.90
2017-05-16T07:57:06.931Z,36.40
2017-05-16T07:59:35.139Z,35.00
2017-05-16T08:02:04.116Z,31.50
2017-05-16T08:04:33.081Z,29.70
2017-05-16T08:07:01.300Z,30.20
2017-05-16T08:09:30.257Z,33.30
2017-05-16T08:11:58.467Z,38.40
2017-05-16T08:14:27.428Z,39.80
2017-05-16T08:16:55.635Z,41.40
2017-05-16T08:19:23.857Z,38.70
2017-05-16T08:21:52.059Z,39.00
2017-05-16T08:24:21.015Z,39.60
2017-05-16T08:26:49.344Z,35.70
2017-05-16T08:29:17.571Z,34.80
2017-05-16T08:31:45.780Z,36.40
2017-05-16T08:34:14.731Z,38.10
2017-05-16T08:36:42.953Z,34.20
2017-05-16T08:39:11.900Z,36.70
2017-05-16T08:41:40.112Z,33.10
2017-05-16T08:44:09.063Z,33.60
2017-05-16T08:46:37.279Z,32.20
2017-05-16T08:49:06.226Z,34.10
2017-05-16T08:51:34.439Z,32.70
2017-05-16T08:54:03.393Z,31.00
2017-05-16T08:56:31.631Z,30.00
2017-05-16T08:58:59.844Z,28.30
2017-05-16T09:01:28.080Z,25.50
2017-05-16T09:03:56.292Z,25.40
2017-05-16T09:06:24.499Z,26.80
2017-05-16T09:08:53.460Z,25.20
2017-05-16T09:11:21.675Z,23.40
2017-05-16T09:13:50.626Z,24.20
2017-05-16T09:16:18.834Z,23.30
2017-05-16T09:18:48.587Z,23.90
2017-05-16T09:21:16.799Z,23.60
2017-05-16T09:23:45.011Z,24.70
2017-05-16T09:26:13.227Z,24.50
2017-05-16T09:28:41.456Z,26.10
2017-05-16T09:31:10.403Z,24.10
2017-05-16T09:33:38.638Z,27.20
2017-05-16T09:36:06.840Z,26.00
2017-05-16T09:38:35.054Z,24.80
2017-05-16T09:41:04.008Z,23.60
2017-05-16T09:43:32.215Z,23.20
2017-05-16T09:46:01.167Z,24.50
2017-05-16T09:48:29.383Z,25.90
2017-05-16T09:50:58.336Z,24.40
2017-05-16T09:53:26.543Z,23.10
2017-05-16T09:55:55.499Z,23.90
2017-05-16T09:58:23.714Z,22.90
2017-05-16T10:00:52.667Z,22.60
2017-05-16T10:03:20.877Z,22.80
2017-05-16T10:05:49.846Z,22.60
2017-05-16T10:08:18.055Z,22.80
2017-05-16T10:10:47.017Z,26.20
2017-05-16T10:13:15.223Z,26.00
2017-05-16T10:15:43.445Z,27.10
2017-05-16T10:18:11.656Z,26.50
2017-05-16T10:20:40.608Z,26.90
2017-05-16T10:23:08.828Z,27.00
2017-05-16T10:25:37.788Z,27.00
2017-05-16T10:28:06.003Z,26.90
2017-05-16T10:30:34.220Z,25.10
2017-05-16T10:33:02.444Z,24.60
2017-05-16T10:37:58.852Z,28.20
2017-05-16T10:40:27.096Z,26.00
2017-05-16T10:42:56.051Z,24.60
2017-05-16T10:45:24.259Z,25.10
2017-05-16T10:47:53.212Z,25.60
2017-05-16T10:50:21.424Z,25.80
2017-05-16T10:52:50.371Z,26.70
2017-05-16T10:55:18.590Z,29.00
2017-05-16T10:57:47.535Z,27.30
2017-05-16T11:00:15.752Z,27.60
2017-05-16T11:02:44.695Z,27.60
2017-05-16T11:05:12.907Z,26.30
2017-05-16T11:07:41.863Z,27.00
2017-05-16T11:10:10.075Z,24.60
2017-05-16T11:12:39.031Z,26.00
2017-05-16T11:15:07.260Z,26.30
2017-05-16T11:17:35.474Z,24.90
2017-05-16T11:20:03.685Z,24.40
2017-05-16T11:22:32.643Z,23.90
2017-05-16T11:25:00.860Z,24.60
2017-05-16T11:27:29.092Z,24.90
2017-05-16T11:29:57.301Z,23.80
2017-05-16T11:32:26.256Z,25.20
2017-05-16T11:34:54.463Z,24.90
2017-05-16T11:37:23.443Z,24.60
2017-05-16T11:39:51.650Z,23.70
2017-05-16T11:42:19.867Z,25.00
2017-05-16T11:44:48.076Z,24.00
2017-05-16T11:47:17.035Z,24.80
2017-05-16T11:49:45.245Z,23.30
2017-05-16T11:52:14.291Z,24.10
2017-05-16T11:54:42.509Z,24.30
2017-05-16T11:57:10.753Z,23.10
2017-05-16T11:59:38.935Z,23.30
2017-05-16T12:02:07.143Z,24.50
2017-05-16T12:04:36.099Z,22.20
2017-05-16T12:07:04.315Z,23.10
2017-05-16T12:09:32.543Z,23.40
2017-05-16T12:12:00.764Z,23.10
2017-05-16T12:14:28.975Z,23.90
2017-05-16T12:16:58.322Z,22.60
2017-05-16T12:19:26.545Z,22.40
2017-05-16T12:21:54.767Z,23.70
2017-05-16T12:24:22.995Z,24.70
2017-05-16T12:26:51.215Z,25.40
2017-05-16T12:29:19.423Z,24.80
2017-05-16T12:31:48.384Z,24.50
2017-05-16T12:34:16.592Z,24.10
2017-05-16T12:36:45.551Z,27.10
2017-05-16T12:39:13.767Z,25.50
2017-05-16T12:41:42.742Z,25.70
2017-05-16T12:44:10.953Z,25.60
2017-05-16T12:46:39.172Z,26.30
2017-05-16T12:49:07.378Z,26.70
2017-05-16T12:51:36.343Z,25.70
2017-05-16T12:54:04.553Z,24.80
2017-05-16T12:56:32.771Z,25.50
2017-05-16T12:59:00.987Z,25.60
2017-05-16T13:01:29.940Z,25.90
2017-05-16T13:03:58.161Z,25.80
2017-05-16T13:06:27.107Z,24.30
2017-05-16T13:08:55.327Z,25.30
2017-05-16T13:11:24.273Z,25.30
2017-05-16T13:13:52.897Z,23.00
2017-05-16T13:16:21.847Z,24.10
2017-05-16T13:18:50.064Z,24.20
2017-05-16T13:21:19.011Z,25.30
2017-05-16T13:23:47.239Z,24.50
2017-05-16T13:26:15.455Z,22.90
2017-05-16T13:28:43.679Z,24.50
2017-05-16T13:31:12.634Z,25.20
2017-05-16T13:33:40.852Z,24.50
2017-05-16T13:36:09.067Z,23.90
2017-05-16T13:38:37.279Z,24.20
2017-05-16T13:41:06.235Z,25.50
2017-05-16T13:43:34.450Z,25.90
2017-05-16T13:46:02.663Z,24.80
2017-05-16T13:48:30.871Z,25.50
2017-05-16T13:50:59.087Z,26.20
2017-05-16T13:53:27.299Z,25.00
2017-05-16T13:55:56.256Z,25.80
2017-05-16T13:58:24.464Z,25.60
2017-05-16T14:00:53.444Z,25.40
2017-05-16T14:03:21.649Z,26.00
2017-05-16T14:05:50.600Z,25.60
2017-05-16T14:08:18.811Z,26.90
2017-05-16T14:10:47.037Z,26.90
2017-05-16T14:13:15.247Z,26.30
2017-05-16T14:15:44.195Z,27.00
2017-05-16T14:18:12.420Z,26.40
2017-05-16T14:20:41.378Z,25.50
2017-05-16T14:23:09.591Z,26.20
2017-05-16T14:25:37.801Z,26.10
2017-05-16T14:28:06.019Z,27.50
2017-05-16T14:30:34.975Z,28.40
2017-05-16T14:33:03.188Z,28.50
2017-05-16T14:35:32.144Z,27.40
2017-05-16T14:38:00.357Z,27.90
2017-05-16T14:40:29.307Z,28.00
2017-05-16T14:42:57.516Z,28.90
2017-05-16T14:45:26.471Z,28.30
2017-05-16T14:47:54.684Z,27.70
2017-05-16T14:50:23.636Z,28.90
2017-05-16T14:52:51.855Z,28.30
2017-05-16T14:55:20.810Z,27.70
2017-05-16T14:57:49.059Z,29.50
2017-05-16T15:00:17.979Z,28.20
2017-05-16T15:02:46.188Z,28.20
2017-05-16T15:05:15.139Z,28.60
2017-05-16T15:07:43.339Z,28.80
2017-05-16T15:10:12.304Z,29.20
2017-05-16T15:12:40.507Z,29.70
2017-05-16T15:15:09.463Z,29.40
2017-05-16T15:17:37.672Z,29.80
2017-05-16T15:20:06.627Z,29.70
2017-05-16T15:22:34.849Z,29.90
2017-05-16T15:25:03.832Z,31.50
2017-05-16T15:27:32.792Z,30.60
2017-05-16T15:30:01.027Z,30.10
2017-05-16T15:32:29.256Z,30.90
2017-05-16T15:34:57.463Z,31.40
2017-05-16T15:37:25.684Z,31.00
2017-05-16T15:39:53.892Z,31.90
2017-05-16T15:42:22.849Z,31.10
2017-05-16T15:44:51.798Z,32.20
2017-05-16T15:47:20.020Z,31.50
2017-05-16T15:49:48.972Z,30.60
2017-05-16T15:52:17.189Z,30.80
2017-05-16T15:54:46.136Z,32.30
2017-05-16T15:57:14.351Z,31.80
2017-05-16T15:59:43.299Z,32.50
2017-05-16T16:02:11.517Z,32.00
2017-05-16T16:04:40.464Z,32.40
2017-05-16T16:07:08.690Z,32.40
2017-05-16T16:09:36.908Z,33.30
2017-05-16T16:12:05.119Z,32.20
2017-05-16T16:14:34.077Z,32.40
2017-05-16T16:17:02.284Z,33.10
2017-05-16T16:19:31.244Z,32.60
2017-05-16T16:21:59.450Z,33.20
2017-05-16T16:24:28.408Z,32.80
2017-05-16T16:26:56.615Z,32.90
2017-05-16T16:29:25.572Z,33.80
2017-05-16T16:31:53.780Z,33.10
2017-05-16T16:34:22.748Z,33.60
2017-05-16T16:36:50.956Z,33.20
2017-05-16T16:39:19.904Z,33.30
2017-05-16T16:41:48.113Z,33.30
2017-05-16T16:44:17.063Z,33.50
2017-05-16T16:46:45.281Z,32.30
2017-05-16T16:49:14.227Z,33.70
2017-05-16T16:51:42.439Z,34.80
2017-05-16T16:54:11.396Z,34.40
2017-05-16T16:56:39.606Z,34.50
2017-05-16T16:59:08.559Z,34.30
2017-05-16T17:01:36.780Z,35.00
2017-05-16T17:04:05.727Z,34.10
2017-05-16T17:06:33.959Z,34.50
2017-05-16T17:09:02.175Z,34.80
2017-05-16T17:11:30.384Z,34.30
2017-05-16T17:13:59.339Z,34.50
2017-05-16T17:16:27.548Z,35.20
2017-05-16T17:18:56.503Z,34.70
2017-05-16T17:21:24.713Z,34.50
2017-05-16T17:23:53.668Z,34.90
2017-05-16T17:26:21.880Z,34.80
2017-05-16T17:28:50.843Z,35.80
2017-05-16T17:31:19.048Z,35.00
2017-05-16T17:33:48.001Z,35.40
2017-05-16T17:36:16.212Z,35.30
2017-05-16T17:38:45.896Z,35.40
2017-05-16T17:41:14.098Z,34.90
2017-05-16T17:43:43.059Z,35.40
2017-05-16T17:46:11.268Z,35.10
2017-05-16T17:48:40.227Z,35.60
2017-05-16T17:51:08.436Z,36.00
2017-05-16T17:53:37.384Z,36.10
2017-05-16T17:56:05.595Z,36.30
2017-05-16T17:58:34.549Z,35.70
2017-05-16T18:01:02.775Z,36.40
2017-05-16T18:03:30.983Z,37.50
2017-05-16T18:05:59.203Z,37.20
2017-05-16T18:08:27.411Z,37.10
2017-05-16T18:10:56.368Z,37.40
2017-05-16T18:13:24.584Z,37.70
2017-05-16T18:15:53.558Z,38.40
2017-05-16T18:18:21.767Z,39.00
2017-05-16T18:20:50.008Z,39.50
2017-05-16T18:23:18.215Z,39.40
2017-05-16T18:25:46.432Z,41.70
2017-05-16T18:28:14.643Z,43.30
2017-05-16T18:30:43.595Z,43.90
2017-05-16T18:33:11.815Z,44.50
2017-05-16T18:35:40.773Z,45.00
2017-05-16T18:38:08.986Z,45.40
2017-05-16T18:40:37.939Z,46.30
2017-05-16T18:43:06.163Z,47.20
2017-05-16T18:45:34.377Z,47.90
2017-05-16T18:48:02.597Z,48.50
2017-05-16T18:50:31.555Z,49.60
2017-05-16T18:52:59.771Z,51.40
2017-05-16T18:55:27.992Z,53.10
2017-05-16T18:57:56.209Z,53.90
2017-05-16T19:00:25.155Z,54.50
2017-05-16T19:02:53.371Z,55.10
2017-05-16T19:05:22.327Z,55.80
2017-05-16T19:07:50.547Z,56.60
2017-05-16T19:10:18.768Z,57.20
2017-05-16T19:12:46.979Z,57.20
2017-05-16T19:15:15.931Z,56.10
2017-05-16T19:17:44.165Z,57.10
2017-05-16T19:20:12.385Z,57.60
2017-05-16T19:22:40.591Z,58.20
2017-05-16T19:25:09.560Z,58.80
2017-05-16T19:27:37.772Z,57.80
2017-05-16T19:30:06.732Z,58.00
2017-05-16T19:32:34.946Z,59.20
2017-05-16T19:35:03.170Z,59.70
2017-05-16T19:37:32.123Z,61.00
2017-05-16T19:40:00.339Z,61.70
2017-05-16T19:42:29.287Z,61.80
2017-05-16T19:44:57.516Z,62.30
2017-05-16T19:47:25.735Z,62.70
2017-05-16T19:49:53.943Z,63.40
2017-05-16T19:52:22.904Z,64.00
2017-05-16T19:54:51.116Z,64.30
2017-05-16T19:57:20.068Z,65.10
2017-05-16T19:59:48.284Z,65.60
2017-05-16T20:02:17.255Z,66.00
2017-05-16T20:04:45.468Z,66.50
2017-05-16T20:07:13.683Z,66.50
2017-05-16T20:09:41.892Z,66.50
2017-05-16T20:12:10.848Z,66.60
2017-05-16T20:14:39.054Z,67.80
2017-05-16T20:17:08.009Z,68.30
2017-05-16T20:19:36.223Z,67.80
2017-05-16T20:22:05.175Z,67.90
2017-05-16T20:24:33.388Z,67.40
2017-05-16T20:27:02.343Z,67.20
2017-05-16T20:29:30.564Z,67.40
2017-05-16T20:31:59.520Z,67.40
2017-05-16T20:34:27.740Z,67.40
2017-05-16T20:36:55.956Z,67.70
2017-05-16T20:39:24.187Z,67.70
2017-05-16T20:41:52.407Z,67.70
2017-05-16T20:44:20.616Z,67.50
2017-05-16T20:46:49.569Z,67.90
2017-05-16T20:49:17.781Z,68.10
2017-05-16T20:51:46.741Z,67.90
2017-05-16T20:54:14.941Z,68.00
2017-05-16T20:56:43.900Z,68.40
2017-05-16T20:59:12.107Z,69.10
2017-05-16T21:01:41.066Z,69.70
2017-05-16T21:04:09.271Z,70.00
2017-05-16T21:06:38.230Z,70.50
2017-05-16T21:09:06.440Z,70.20
2017-05-16T21:11:35.406Z,70.20
2017-05-16T21:14:03.611Z,70.60
2017-05-16T21:16:32.650Z,71.00
2017-05-16T21:19:00.899Z,70.90
2017-05-16T21:21:29.113Z,70.70
2017-05-16T21:23:57.329Z,70.80
2017-05-16T21:26:26.275Z,70.70
2017-05-16T21:28:54.483Z,70.90
2017-05-16T21:31:23.445Z,71.60
2017-05-16T21:33:51.667Z,71.50
2017-05-16T21:36:20.607Z,71.80
2017-05-16T21:38:48.834Z,71.90
2017-05-16T21:41:17.783Z,71.70
2017-05-16T21:43:46.007Z,71.80
2017-05-16T21:46:14.219Z,71.70
2017-05-16T21:48:42.440Z,71.90
2017-05-16T21:51:11.387Z,72.10
2017-05-16T21:53:39.602Z,72.80
2017-05-16T21:56:08.555Z,72.20
2017-05-16T21:58:36.768Z,72.30
2017-05-16T22:01:05.734Z,72.20
2017-05-16T22:03:33.953Z,72.30
2017-05-16T22:06:02.182Z,72.40
2017-05-16T22:08:30.609Z,72.40
2017-05-16T22:10:58.823Z,72.00
2017-05-16T22:13:27.776Z,72.20
2017-05-16T22:15:55.995Z,73.30
2017-05-16T22:18:24.943Z,73.00
2017-05-16T22:20:56.296Z,72.50
2017-05-16T22:23:25.256Z,72.70
2017-05-16T22:25:53.474Z,72.60
2017-05-16T22:28:22.451Z,73.00
2017-05-16T22:30:51.408Z,74.00
2017-05-16T22:33:19.615Z,74.10
2017-05-16T22:35:47.824Z,74.00
2017-05-16T22:38:16.034Z,73.60
2017-05-16T22:40:44.243Z,73.70
2017-05-16T22:43:13.207Z,73.60
2017-05-16T22:45:41.415Z,74.00
2017-05-16T22:48:10.385Z,74.10
2017-05-16T22:50:38.587Z,74.30
2017-05-16T22:53:07.539Z,74.40
2017-05-16T22:55:35.751Z,74.30
2017-05-16T22:58:03.976Z,74.40
2017-05-16T23:00:32.187Z,74.90
2017-05-16T23:03:00.395Z,75.80
2017-05-16T23:05:28.618Z,75.20
2017-05-16T23:07:56.822Z,75.30
2017-05-16T23:10:25.775Z,75.50
2017-05-16T23:12:53.982Z,75.30
2017-05-16T23:15:22.939Z,75.60
2017-05-16T23:17:51.147Z,76.10
2017-05-16T23:20:20.115Z,76.10
2017-05-16T23:22:48.320Z,76.30
2017-05-16T23:25:16.547Z,76.20
2017-05-16T23:27:44.760Z,76.60
2017-05-16T23:30:13.727Z,77.30
2017-05-16T23:32:41.932Z,76.70
2017-05-16T23:35:15.779Z,76.90
2017-05-16T23:37:44.024Z,77.00
2017-05-16T23:40:12.235Z,77.10
2017-05-16T23:42:40.447Z,77.20
2017-05-16T23:45:08.656Z,77.40
2017-05-16T23:47:36.872Z,77.60
2017-05-16T23:50:05.083Z,77.60
2017-05-16T23:52:33.287Z,77.90
2017-05-16T23:55:01.501Z,78.00
2017-05-16T23:57:30.451Z,78.00
2017-05-16T23:59:58.666Z,78.20
